Time;durP1;ratioP1;P1;durP2;ratioP2;P2;SDS_P1;SDS_P2;PMS_P1;PMS_P2;Temp;Humidity;BMP_temperature;BMP_pressure;BME280_temperature;BME280_humidity;BME280_pressure;Samples;Min_cycle;Max_cycle;Signal;HPM_P1;HPM_P2
2023/06/28 00:01:23;;;;;;;5.45;2.35;;;;;;;-145.69;nan;51996.84;5074930;28;20205;-86
2023/06/28 00:03:50;;;;;;;3.85;2.15;;;;;;;-145.69;nan;52004.75;5073978;28;20199;-86
2023/06/28 00:06:16;;;;;;;6.85;2.33;;;;;;;-145.69;nan;52008.72;5073918;28;20223;-86
2023/06/28 00:08:43;;;;;;;7.57;2.08;;;;;;;-145.69;nan;52004.75;5074729;28;20201;-87
2023/06/28 00:11:10;;;;;;;6.45;2.40;;;;;;;-145.69;nan;52000.81;5074655;28;20203;-86
2023/06/28 00:13:36;;;;;;;8.13;2.42;;;;;;;-145.69;nan;52000.81;5074699;28;20202;-87
2023/06/28 00:16:03;;;;;;;4.82;1.80;;;;;;;-145.69;nan;51957.25;5074828;28;20218;-86
2023/06/28 00:18:33;;;;;;;4.90;2.53;;;;;;;-145.69;nan;51992.88;5074749;28;20210;-86
2023/06/28 00:21:00;;;;;;;7.07;2.55;;;;;;;-145.69;nan;52004.75;5074531;28;20206;-85
2023/06/28 00:23:27;;;;;;;4.20;2.00;;;;;;;-145.69;nan;51941.41;5074566;28;20317;-86
2023/06/28 00:25:53;;;;;;;5.97;2.42;;;;;;;-145.69;nan;51969.13;5074267;28;20226;-86
2023/06/28 00:28:20;;;;;;;5.35;2.38;;;;;;;-145.69;nan;51981.00;5073077;28;20667;-87
2023/06/28 00:30:46;;;;;;;4.10;2.50;;;;;;;-145.69;nan;52004.75;5074587;28;20271;-86
2023/06/28 00:33:19;;;;;;;6.35;2.30;;;;;;;-145.69;nan;52000.81;5067130;28;20195;-86
2023/06/28 00:35:47;;;;;;;5.50;2.20;;;;;;;-145.69;nan;52002.78;5061279;28;20202;-85
2023/06/28 00:38:14;;;;;;;5.65;2.42;;;;;;;-145.69;nan;51973.06;5073531;28;20438;-86
2023/06/28 00:40:40;;;;;;;3.35;2.30;;;;;;;-145.69;nan;51977.03;5072807;28;20199;-86
2023/06/28 00:43:07;;;;;;;3.53;2.30;;;;;;;-145.69;nan;51959.22;5072917;28;20558;-85
2023/06/28 00:45:34;;;;;;;5.00;2.47;;;;;;;-145.69;nan;51998.81;5073935;28;20593;-85
2023/06/28 00:48:00;;;;;;;4.65;2.03;;;;;;;-145.69;nan;51967.13;5074030;28;20205;-86
2023/06/28 00:50:27;;;;;;;4.30;2.10;;;;;;;-145.69;nan;51990.91;5073744;28;20237;-86
2023/06/28 00:52:55;;;;;;;6.68;2.53;;;;;;;-145.69;nan;51982.97;5068849;28;20202;-86
2023/06/28 00:55:22;;;;;;;4.82;2.50;;;;;;;-145.69;nan;51959.22;5053840;28;20211;-86
2023/06/28 00:57:48;;;;;;;4.47;2.25;;;;;;;-145.69;nan;52002.78;5059121;28;20195;-86
2023/06/28 01:00:16;;;;;;;6.80;2.40;;;;;;;-145.69;nan;51943.38;5074056;28;20202;-87
2023/06/28 01:02:44;;;;;;;4.80;2.67;;;;;;;-145.69;nan;51990.91;5073801;28;20205;-87
2023/06/28 01:05:13;;;;;;;4.57;2.30;;;;;;;-145.69;nan;51977.03;5073757;28;20281;-86
2023/06/28 01:07:40;;;;;;;3.83;2.17;;;;;;;-145.69;nan;51949.31;5073536;28;20195;-86
2023/06/28 01:10:09;;;;;;;4.13;2.08;;;;;;;-145.69;nan;51984.97;5073910;28;20273;-87
2023/06/28 01:12:37;;;;;;;3.88;2.30;;;;;;;-145.69;nan;51981.00;5073228;28;20205;-85
2023/06/28 01:15:05;;;;;;;3.30;1.95;;;;;;;-145.69;nan;51992.88;5071644;28;20221;-85
2023/06/28 01:17:32;;;;;;;3.60;2.35;;;;;;;-145.69;nan;52000.81;5072968;28;20259;-86
2023/06/28 01:19:59;;;;;;;4.75;2.33;;;;;;;-145.69;nan;51996.84;5073689;28;20199;-86
2023/06/28 01:22:27;;;;;;;9.25;2.80;;;;;;;-145.69;nan;52016.66;5073589;28;20289;-84
2023/06/28 01:24:56;;;;;;;4.38;2.28;;;;;;;-145.69;nan;51977.03;5073869;28;20222;-86
2023/06/28 01:27:23;;;;;;;7.82;2.53;;;;;;;-145.69;nan;51990.91;5073796;28;20210;-85
2023/06/28 01:29:57;;;;;;;7.05;1.90;;;;;;;-145.69;nan;52000.81;5073703;28;20202;-86
2023/06/28 01:32:24;;;;;;;4.00;2.40;;;;;;;-145.69;nan;51988.91;5073938;28;20204;-87
2023/06/28 01:34:50;;;;;;;12.20;2.58;;;;;;;-145.69;nan;51971.09;5074112;28;20198;-86
2023/06/28 01:37:17;;;;;;;3.55;2.00;;;;;;;-145.69;nan;52008.72;5073582;28;20210;-87
2023/06/28 01:39:44;;;;;;;3.80;2.10;;;;;;;-145.69;nan;51988.91;5073831;28;20214;-86
2023/06/28 01:42:14;;;;;;;7.18;2.30;;;;;;;-145.69;nan;51977.03;5073655;28;20195;-85
2023/06/28 01:44:41;;;;;;;6.47;2.30;;;;;;;-145.69;nan;52048.31;5073776;28;20198;-87
2023/06/28 01:47:08;;;;;;;5.88;2.25;;;;;;;-145.69;nan;52022.59;5072294;28;20202;-85
2023/06/28 01:49:36;;;;;;;5.68;1.98;;;;;;;-145.69;nan;52022.59;5073333;28;20230;-86
2023/06/28 01:52:03;;;;;;;6.28;2.22;;;;;;;-145.69;nan;52022.59;5073427;28;20234;-85
2023/06/28 01:54:32;;;;;;;3.90;1.75;;;;;;;-145.69;nan;51973.06;5073577;28;20203;-87
2023/06/28 01:56:58;;;;;;;5.03;1.75;;;;;;;-145.69;nan;51988.91;5073499;28;20203;-87
2023/06/28 01:59:26;;;;;;;3.35;2.05;;;;;;;-145.69;nan;52014.66;5073104;28;20677;-87
2023/06/28 02:01:53;;;;;;;7.85;2.05;;;;;;;-145.69;nan;52028.53;5073264;28;20700;-86
2023/06/28 02:04:19;;;;;;;5.38;2.25;;;;;;;-145.69;nan;52004.75;5073644;28;20199;-87
2023/06/28 02:06:46;;;;;;;4.35;1.92;;;;;;;-145.69;nan;51996.84;5073121;28;20617;-87
2023/06/28 02:09:12;;;;;;;5.18;2.40;;;;;;;-145.69;nan;52012.69;5073826;28;20434;-87
2023/06/28 02:11:39;;;;;;;6.47;2.10;;;;;;;-145.69;nan;51969.13;5076859;28;20198;-85
2023/06/28 02:14:05;;;;;;;5.32;2.20;;;;;;;-145.69;nan;52030.50;5077345;28;20201;-87
2023/06/28 02:16:33;;;;;;;3.85;2.00;;;;;;;-145.69;nan;52008.72;5077242;28;20198;-87
2023/06/28 02:19:02;;;;;;;4.78;2.15;;;;;;;-145.69;nan;52004.75;5077057;28;20254;-86
2023/06/28 02:21:28;;;;;;;3.53;1.92;;;;;;;-145.69;nan;52004.75;5075702;28;20203;-86
2023/06/28 02:23:55;;;;;;;5.07;1.95;;;;;;;-145.69;nan;52008.72;5077275;28;20673;-86
2023/06/28 02:26:21;;;;;;;6.05;2.20;;;;;;;-145.69;nan;52024.56;5076731;28;20233;-87
2023/06/28 02:28:48;;;;;;;5.88;2.28;;;;;;;-145.69;nan;52008.72;5076693;28;20626;-87
2023/06/28 02:31:16;;;;;;;3.67;1.80;;;;;;;-145.69;nan;52016.66;5076620;28;20207;-86
2023/06/28 02:33:44;;;;;;;4.03;2.13;;;;;;;-145.69;nan;52008.72;5075666;28;20205;-86
2023/06/28 02:36:10;;;;;;;4.85;2.05;;;;;;;-145.69;nan;52012.69;5062834;28;20195;-87
2023/06/28 02:38:39;;;;;;;9.60;2.65;;;;;;;-145.69;nan;52012.69;5057063;28;20665;-85
2023/06/28 02:41:08;;;;;;;4.55;2.10;;;;;;;-145.69;nan;52024.56;5064205;28;20199;-87
2023/06/28 02:43:38;;;;;;;6.68;2.10;;;;;;;-145.69;nan;51996.84;5077082;28;20210;-86
2023/06/28 02:46:04;;;;;;;5.13;2.20;;;;;;;-145.69;nan;52016.66;5076923;28;20230;-87
2023/06/28 02:48:31;;;;;;;6.45;2.10;;;;;;;-145.69;nan;52006.75;5076523;28;20790;-87
2023/06/28 02:50:59;;;;;;;3.67;2.13;;;;;;;-145.69;nan;52020.59;5076594;28;20230;-87
2023/06/28 02:53:27;;;;;;;6.43;2.50;;;;;;;-145.69;nan;52006.75;5075171;28;20654;-86
2023/06/28 02:55:54;;;;;;;6.03;2.20;;;;;;;-145.69;nan;52032.47;5075317;28;20236;-86
2023/06/28 02:58:23;;;;;;;3.13;2.00;;;;;;;-145.69;nan;51988.91;5076688;28;20206;-86
2023/06/28 03:00:49;;;;;;;5.30;2.20;;;;;;;-145.69;nan;51992.88;5076402;28;20206;-86
2023/06/28 03:03:17;;;;;;;4.78;1.88;;;;;;;-145.69;nan;51992.88;5076518;28;20195;-86
2023/06/28 03:05:43;;;;;;;5.25;2.00;;;;;;;-145.69;nan;52004.75;5076347;28;20309;-86
2023/06/28 03:08:11;;;;;;;5.22;2.13;;;;;;;-145.69;nan;52020.59;5076050;28;20222;-86
2023/06/28 03:10:38;;;;;;;3.53;1.83;;;;;;;-145.69;nan;52020.59;5074722;28;20363;-87
2023/06/28 03:13:04;;;;;;;5.50;2.40;;;;;;;-145.69;nan;52004.75;5076130;28;20203;-87
2023/06/28 03:15:31;;;;;;;5.05;2.25;;;;;;;-145.69;nan;52000.81;5075746;28;20195;-87
2023/06/28 03:18:00;;;;;;;5.20;2.38;;;;;;;-145.69;nan;52008.72;5076175;28;20198;-87
2023/06/28 03:20:27;;;;;;;5.38;2.05;;;;;;;-145.69;nan;52012.69;5075453;28;20205;-87
2023/06/28 03:22:54;;;;;;;5.60;2.10;;;;;;;-145.69;nan;52022.59;5076243;28;20206;-86
2023/06/28 03:25:22;;;;;;;5.40;1.98;;;;;;;-145.69;nan;52034.47;5076324;28;20222;-87
2023/06/28 03:27:49;;;;;;;6.50;2.10;;;;;;;-145.69;nan;52032.47;5076191;28;20709;-87
2023/06/28 03:30:18;;;;;;;4.15;1.70;;;;;;;-145.69;nan;52004.75;5075942;28;20203;-87
2023/06/28 03:32:45;;;;;;;5.90;1.90;;;;;;;-145.69;nan;52016.66;5075711;28;20206;-86
2023/06/28 03:35:11;;;;;;;6.63;1.92;;;;;;;-145.69;nan;52020.59;5075838;28;20229;-87
2023/06/28 03:37:38;;;;;;;3.75;2.00;;;;;;;-145.69;nan;52008.72;5075677;28;20203;-87
2023/06/28 03:40:08;;;;;;;5.85;1.80;;;;;;;-145.69;nan;52050.31;5075487;28;20209;-86
2023/06/28 03:42:36;;;;;;;6.63;2.10;;;;;;;-145.69;nan;52036.44;5074601;28;20210;-86
2023/06/28 03:45:03;;;;;;;6.75;2.38;;;;;;;-145.69;nan;52012.69;5075323;28;20207;-86
2023/06/28 03:47:30;;;;;;;3.00;1.80;;;;;;;-145.69;nan;52016.66;5074602;28;20210;-87
2023/06/28 03:49:56;;;;;;;5.55;2.28;;;;;;;-145.69;nan;52012.69;5075069;28;20234;-86
2023/06/28 03:52:23;;;;;;;3.95;2.20;;;;;;;-145.69;nan;52010.69;5075591;28;20629;-86
2023/06/28 03:54:49;;;;;;;6.00;2.30;;;;;;;-145.69;nan;52026.53;5075449;28;20213;-86
2023/06/28 03:57:16;;;;;;;7.65;2.05;;;;;;;-145.69;nan;52018.63;5074922;28;20203;-87
2023/06/28 03:59:44;;;;;;;3.88;1.80;;;;;;;-145.69;nan;52012.69;5074904;28;20592;-86
2023/06/28 04:02:12;;;;;;;4.20;2.00;;;;;;;-145.69;nan;52018.63;5074053;28;20210;-86
2023/06/28 04:04:44;;;;;;;4.70;2.20;;;;;;;-145.69;nan;52028.53;5074999;28;20553;-87
2023/06/28 04:07:11;;;;;;;4.85;2.00;;;;;;;-145.69;nan;52040.41;5074601;28;20478;-87
2023/06/28 04:09:38;;;;;;;4.82;2.17;;;;;;;-145.69;nan;52004.75;5074671;28;20202;-86
2023/06/28 04:12:05;;;;;;;4.88;2.08;;;;;;;-145.69;nan;52012.69;5072865;28;20256;-86
2023/06/28 04:14:32;;;;;;;8.35;2.22;;;;;;;-145.69;nan;52020.59;5074764;28;20203;-86
2023/06/28 04:17:00;;;;;;;4.75;1.95;;;;;;;-145.69;nan;52034.47;5074755;28;20562;-86
2023/06/28 04:19:26;;;;;;;4.07;2.20;;;;;;;-145.69;nan;52020.59;5075001;28;20222;-86
2023/06/28 04:21:53;;;;;;;4.25;1.92;;;;;;;-145.69;nan;52016.66;5074638;28;20199;-87
2023/06/28 04:24:20;;;;;;;8.55;2.35;;;;;;;-145.69;nan;52014.66;5071969;28;20650;-86
2023/06/28 04:27:00;;;;;;;4.53;1.70;;;;;;;-145.69;nan;52010.69;5072170;28;20237;-87
2023/06/28 04:29:26;;;;;;;5.68;2.40;;;;;;;-145.69;nan;52022.59;5074214;28;20198;-87
2023/06/28 04:31:55;;;;;;;5.43;1.92;;;;;;;-145.69;nan;52018.63;5074057;28;20649;-86
2023/06/28 04:34:23;;;;;;;3.28;1.70;;;;;;;-145.69;nan;52022.59;5073881;28;20256;-86
2023/06/28 04:36:55;;;;;;;2.63;1.60;;;;;;;-145.69;nan;51992.88;5064561;28;20199;-86
2023/06/28 04:39:22;;;;;;;5.75;2.22;;;;;;;-145.69;nan;52018.63;5054316;28;20206;-86
2023/06/28 04:41:48;;;;;;;5.90;1.88;;;;;;;-145.69;nan;52004.75;5054577;28;20269;-86
2023/06/28 04:44:15;;;;;;;10.70;2.05;;;;;;;-145.69;nan;52042.38;5054582;28;20207;-86
2023/06/28 04:46:44;;;;;;;9.93;2.00;;;;;;;-145.69;nan;52024.56;5054250;28;20230;-86
2023/06/28 04:49:11;;;;;;;5.80;2.15;;;;;;;-145.69;nan;52022.59;5052867;28;20440;-86
2023/06/28 04:51:39;;;;;;;5.05;1.80;;;;;;;-145.69;nan;52046.34;5054453;28;20642;-86
2023/06/28 04:54:05;;;;;;;6.32;2.10;;;;;;;-145.69;nan;52000.81;5053835;28;20204;-86
2023/06/28 04:56:32;;;;;;;7.05;2.17;;;;;;;-145.69;nan;52044.38;5053986;28;20663;-86
2023/06/28 04:59:05;;;;;;;5.32;1.80;;;;;;;-145.69;nan;51996.84;5054242;28;20260;-86
2023/06/28 05:01:31;;;;;;;4.47;2.00;;;;;;;-145.69;nan;52022.59;5054032;28;20213;-86
2023/06/28 05:03:58;;;;;;;4.70;1.85;;;;;;;-145.69;nan;51998.81;5054218;28;20199;-87
2023/06/28 05:06:25;;;;;;;7.03;1.88;;;;;;;-145.69;nan;52024.56;5053980;28;20229;-86
2023/06/28 05:08:56;;;;;;;6.82;2.15;;;;;;;-145.69;nan;52030.50;5053807;28;20662;-87
2023/06/28 05:11:22;;;;;;;4.13;1.90;;;;;;;-145.69;nan;51996.84;5053750;28;20658;-85
2023/06/28 05:13:49;;;;;;;3.70;1.60;;;;;;;-145.69;nan;52006.75;5053644;28;20199;-86
2023/06/28 05:16:15;;;;;;;5.70;2.17;;;;;;;-145.69;nan;51986.94;5052944;28;20207;-86
2023/06/28 05:18:42;;;;;;;4.30;1.85;;;;;;;-145.69;nan;52028.53;5064747;28;20202;-84
2023/06/28 05:21:08;;;;;;;8.63;2.10;;;;;;;-145.69;nan;51984.97;5073246;28;20199;-84
2023/06/28 05:23:35;;;;;;;8.05;1.90;;;;;;;-145.69;nan;51996.84;5073092;28;20211;-84
2023/06/28 05:26:04;;;;;;;5.18;1.80;;;;;;;-145.69;nan;52000.81;5072030;28;20554;-85
2023/06/28 05:28:30;;;;;;;4.47;1.90;;;;;;;-145.69;nan;51988.91;5073332;28;20205;-85
2023/06/28 05:30:58;;;;;;;4.85;1.95;;;;;;;-145.69;nan;52004.75;5073854;28;20285;-86
2023/06/28 05:33:24;;;;;;;5.78;1.88;;;;;;;-145.69;nan;51984.97;5073351;28;20206;-86
2023/06/28 05:35:51;;;;;;;4.10;2.00;;;;;;;-145.69;nan;52008.72;5072906;28;20225;-84
2023/06/28 05:38:17;;;;;;;4.15;1.80;;;;;;;-145.69;nan;51982.97;5073365;28;20210;-86
2023/06/28 05:40:47;;;;;;;5.07;1.70;;;;;;;-145.69;nan;51996.84;5073625;28;20208;-84
2023/06/28 05:43:23;;;;;;;5.80;2.08;;;;;;;-145.69;nan;51965.16;5073401;28;20241;-85
2023/06/28 05:45:50;;;;;;;7.10;1.83;;;;;;;-145.69;nan;51984.97;5076887;28;20217;-86
2023/06/28 05:48:17;;;;;;;5.80;1.90;;;;;;;-145.69;nan;52010.69;5077272;28;20566;-87
2023/06/28 05:50:46;;;;;;;4.65;1.63;;;;;;;-145.69;nan;51992.88;5076976;28;20393;-85
2023/06/28 05:53:14;;;;;;;4.85;1.77;;;;;;;-145.69;nan;52026.53;5076769;28;20285;-86
2023/06/28 05:55:40;;;;;;;4.95;1.80;;;;;;;-145.69;nan;51973.06;5077717;28;20257;-87
2023/06/28 05:58:07;;;;;;;4.20;2.10;;;;;;;-145.69;nan;51973.06;5075940;28;20195;-85
2023/06/28 06:00:35;;;;;;;9.02;2.15;;;;;;;-145.69;nan;51984.97;5076813;28;20297;-85
2023/06/28 06:03:02;;;;;;;6.35;2.13;;;;;;;-145.69;nan;51953.28;5076371;28;20198;-85
2023/06/28 06:05:29;;;;;;;6.95;2.00;;;;;;;-145.69;nan;51961.19;5076915;28;20205;-84
2023/06/28 06:07:56;;;;;;;6.20;2.08;;;;;;;-145.69;nan;51965.16;5076147;28;20708;-85
2023/06/28 06:10:22;;;;;;;2.83;1.90;;;;;;;-145.69;nan;52008.72;5076379;28;20198;-85
2023/06/28 06:12:49;;;;;;;6.88;2.65;;;;;;;-145.69;nan;51979.03;5075951;28;20607;-84
2023/06/28 06:15:26;;;;;;;8.48;2.05;;;;;;;-145.69;nan;51981.00;5076478;28;20542;-84
2023/06/28 06:17:54;;;;;;;8.23;2.13;;;;;;;-145.69;nan;52002.78;5076078;28;20198;-84
2023/06/28 06:20:21;;;;;;;7.35;2.40;;;;;;;-145.69;nan;51984.97;5076509;28;20648;-85
2023/06/28 06:22:51;;;;;;;6.50;1.80;;;;;;;-145.69;nan;51961.19;5076170;28;20199;-84
2023/06/28 06:25:17;;;;;;;6.88;2.47;;;;;;;-145.69;nan;51969.13;5076263;28;20285;-85
2023/06/28 06:27:44;;;;;;;10.80;2.03;;;;;;;-145.69;nan;52000.81;5076236;28;20317;-85
2023/06/28 06:30:11;;;;;;;5.18;2.00;;;;;;;-145.69;nan;51984.97;5076347;28;20206;-85
2023/06/28 06:32:44;;;;;;;7.00;2.15;;;;;;;-145.69;nan;51949.31;5076083;28;20557;-84
2023/06/28 06:35:15;;;;;;;6.13;2.10;;;;;;;-145.69;nan;51961.19;5075750;28;20230;-86
2023/06/28 06:37:41;;;;;;;6.93;2.55;;;;;;;-145.69;nan;51992.88;5076384;28;20199;-86
2023/06/28 06:40:09;;;;;;;3.97;2.20;;;;;;;-145.69;nan;51955.25;5076268;28;20668;-85
2023/06/28 06:42:36;;;;;;;9.98;2.33;;;;;;;-145.69;nan;51949.31;5075599;28;20199;-85
2023/06/28 06:45:02;;;;;;;7.20;1.98;;;;;;;-145.69;nan;52012.69;5075715;28;20203;-85
2023/06/28 06:47:29;;;;;;;5.80;2.03;;;;;;;-145.69;nan;51965.16;5075859;28;20230;-85
2023/06/28 06:49:55;;;;;;;6.72;2.13;;;;;;;-145.69;nan;51959.22;5075282;28;20238;-84
2023/06/28 06:52:23;;;;;;;6.10;2.20;;;;;;;-145.69;nan;51986.94;5074786;28;20203;-86
2023/06/28 06:54:49;;;;;;;6.90;2.40;;;;;;;-145.69;nan;51973.06;5075534;28;20225;-85
2023/06/28 06:57:16;;;;;;;6.05;1.98;;;;;;;-145.69;nan;52008.72;5074986;28;20207;-86
2023/06/28 06:59:43;;;;;;;6.53;2.08;;;;;;;-145.69;nan;51969.13;5075025;28;20210;-85
2023/06/28 07:02:09;;;;;;;5.28;1.95;;;;;;;-145.69;nan;51969.13;5075256;28;20633;-85
2023/06/28 07:04:36;;;;;;;5.25;2.08;;;;;;;-145.69;nan;51969.13;5074842;28;20210;-85
2023/06/28 07:07:03;;;;;;;4.80;2.15;;;;;;;-145.69;nan;51957.25;5074694;28;20230;-85
2023/06/28 07:09:31;;;;;;;9.73;2.00;;;;;;;-145.69;nan;51963.19;5075193;28;20653;-85
2023/06/28 07:11:58;;;;;;;7.43;2.17;;;;;;;-145.69;nan;51990.91;5095190;28;20205;-86
2023/06/28 07:14:24;;;;;;;8.27;2.13;;;;;;;-145.69;nan;51959.22;5095476;28;20199;-85
2023/06/28 07:16:51;;;;;;;6.82;2.13;;;;;;;-145.69;nan;51971.09;5087857;28;20205;-83
2023/06/28 07:19:17;;;;;;;7.97;2.13;;;;;;;-145.69;nan;51977.03;5074759;28;20560;-83
2023/06/28 07:21:44;;;;;;;9.30;2.03;;;;;;;-145.69;nan;51961.19;5074655;28;20674;-85
2023/06/28 07:24:10;;;;;;;9.27;1.88;;;;;;;-145.69;nan;51931.50;5074891;28;20207;-84
2023/06/28 07:26:38;;;;;;;6.05;1.90;;;;;;;-145.69;nan;52002.78;5074547;28;20249;-82
2023/06/28 07:29:05;;;;;;;4.72;1.88;;;;;;;-145.69;nan;51947.34;5075099;28;20202;-83
2023/06/28 07:31:31;;;;;;;7.47;2.00;;;;;;;-145.69;nan;51961.19;5074535;28;20205;-84
2023/06/28 07:33:58;;;;;;;5.95;2.10;;;;;;;-145.69;nan;51941.41;5074394;28;20577;-83
2023/06/28 07:36:25;;;;;;;6.35;2.10;;;;;;;-145.69;nan;51959.22;5074612;28;20289;-85
2023/06/28 07:38:52;;;;;;;3.50;1.77;;;;;;;-145.69;nan;51949.31;5073872;28;20262;-83
2023/06/28 07:41:18;;;;;;;10.63;2.03;;;;;;;-145.69;nan;51937.44;5074657;28;20206;-84
2023/06/28 07:43:46;;;;;;;4.72;1.92;;;;;;;-145.69;nan;51957.25;5074527;28;20199;-83
2023/06/28 07:46:13;;;;;;;7.28;1.83;;;;;;;-145.69;nan;51925.56;5074422;28;20198;-84
2023/06/28 07:48:39;;;;;;;6.65;1.98;;;;;;;-145.69;nan;51925.56;5073953;28;20708;-83
2023/06/28 07:51:06;;;;;;;6.43;1.67;;;;;;;-145.69;nan;51933.47;5073496;28;20237;-83
2023/06/28 07:53:32;;;;;;;4.45;1.60;;;;;;;-145.69;nan;51955.25;5073675;28;20210;-84
2023/06/28 07:55:59;;;;;;;4.35;1.60;;;;;;;-145.69;nan;51933.47;5074162;28;20290;-83
2023/06/28 07:58:25;;;;;;;10.70;2.00;;;;;;;-145.69;nan;51931.50;5073696;28;20203;-84
2023/06/28 08:00:53;;;;;;;8.73;2.22;;;;;;;-145.69;nan;51935.47;5073425;28;20213;-85
2023/06/28 08:03:20;;;;;;;6.28;2.00;;;;;;;-145.69;nan;51911.69;5073242;28;20199;-84
2023/06/28 08:05:47;;;;;;;7.50;1.90;;;;;;;-145.69;nan;51953.28;5073485;28;20206;-84
2023/06/28 08:08:13;;;;;;;9.55;1.73;;;;;;;-145.69;nan;51937.44;5073515;28;20226;-84
2023/06/28 08:10:40;;;;;;;7.03;1.58;;;;;;;-145.69;nan;51921.59;5073813;28;20198;-84
2023/06/28 08:13:06;;;;;;;4.18;1.60;;;;;;;-145.69;nan;51945.34;5073682;28;20203;-83
2023/06/28 08:15:36;;;;;;;6.82;2.20;;;;;;;-145.69;nan;51925.56;5073554;28;20198;-85
2023/06/28 08:18:05;;;;;;;4.82;1.60;;;;;;;-145.69;nan;51923.56;5073795;28;20607;-85
2023/06/28 08:20:33;;;;;;;8.52;1.73;;;;;;;-145.69;nan;51905.75;5073364;28;20198;-84
2023/06/28 08:22:59;;;;;;;3.60;1.90;;;;;;;-145.69;nan;51955.25;5073607;28;20195;-84
2023/06/28 08:25:26;;;;;;;4.47;1.80;;;;;;;-145.69;nan;51951.28;5073442;28;20523;-84
2023/06/28 08:27:52;;;;;;;3.80;1.63;;;;;;;-145.69;nan;51915.66;5073513;28;20233;-84
2023/06/28 08:30:19;;;;;;;6.20;1.63;;;;;;;-145.69;nan;51925.56;5072796;28;20214;-84
2023/06/28 08:32:46;;;;;;;7.95;1.90;;;;;;;-145.69;nan;51947.34;5073203;28;20198;-85
2023/06/28 08:35:14;;;;;;;6.25;2.08;;;;;;;-145.69;nan;51931.50;5073118;28;20813;-84
2023/06/28 08:37:40;;;;;;;7.25;1.77;;;;;;;-145.69;nan;51925.56;5072932;28;20195;-84
2023/06/28 08:40:08;;;;;;;5.32;1.60;;;;;;;-145.69;nan;51913.69;5073208;28;20205;-82
2023/06/28 08:42:35;;;;;;;13.60;1.95;;;;;;;-145.69;nan;51897.84;5072949;28;20222;-82
2023/06/28 08:45:03;;;;;;;4.90;1.63;;;;;;;-145.69;nan;51941.41;5073055;28;20580;-85
2023/06/28 08:47:30;;;;;;;5.25;1.80;;;;;;;-145.69;nan;51907.72;5070724;28;20588;-86
2023/06/28 08:49:57;;;;;;;5.32;1.98;;;;;;;-145.69;nan;51921.59;5073674;28;20269;-89
2023/06/28 08:52:27;;;;;;;6.90;2.00;;;;;;;-145.69;nan;51893.88;5072414;28;20225;-90
2023/06/28 08:54:53;;;;;;;5.43;1.65;;;;;;;-145.69;nan;51887.94;5074005;28;20203;-88
2023/06/28 08:57:21;;;;;;;7.90;1.70;;;;;;;-145.69;nan;51905.75;5073731;28;20222;-88
2023/06/28 08:59:47;;;;;;;3.30;1.48;;;;;;;-145.69;nan;51883.97;5073222;28;20282;-82
2023/06/28 09:02:17;;;;;;;6.82;1.35;;;;;;;-145.69;nan;51874.06;5072286;28;20199;-82
2023/06/28 09:04:44;;;;;;;6.45;1.40;;;;;;;-145.69;nan;51905.75;5072868;28;20642;-85
2023/06/28 09:07:14;;;;;;;3.63;1.90;;;;;;;-145.69;nan;51885.94;5072672;28;20218;-83
2023/06/28 09:09:43;;;;;;;3.40;1.63;;;;;;;-145.69;nan;51905.75;5071994;28;20190;-86
2023/06/28 09:12:10;;;;;;;9.13;1.85;;;;;;;-145.69;nan;51899.81;5073800;28;20198;-87
2023/06/28 09:14:37;;;;;;;5.63;1.83;;;;;;;-145.69;nan;51891.88;5073282;28;20585;-85
2023/06/28 09:17:04;;;;;;;8.20;1.50;;;;;;;-145.69;nan;51874.06;5072955;28;20194;-85
2023/06/28 09:19:30;;;;;;;3.85;1.30;;;;;;;-145.69;nan;51885.94;5076929;28;20213;-83
2023/06/28 09:22:02;;;;;;;6.82;1.65;;;;;;;-145.69;nan;51878.03;5079582;28;20225;-82
2023/06/28 09:24:33;;;;;;;4.18;1.55;;;;;;;-145.69;nan;51885.94;5079154;28;20202;-83
2023/06/28 09:27:03;;;;;;;3.75;1.52;;;;;;;-145.69;nan;51872.09;5078875;28;20206;-82
2023/06/28 09:29:30;;;;;;;4.82;1.75;;;;;;;-145.69;nan;51874.06;5079018;28;20284;-86
2023/06/28 09:31:57;;;;;;;3.13;1.33;;;;;;;-145.69;nan;51842.38;5079258;28;20195;-86
2023/06/28 09:34:24;;;;;;;5.57;1.58;;;;;;;-145.69;nan;51848.34;5079212;28;20198;-83
2023/06/28 09:36:52;;;;;;;8.27;1.83;;;;;;;-145.69;nan;51852.28;5079515;28;20205;-86
2023/06/28 09:39:19;;;;;;;7.03;1.65;;;;;;;-145.69;nan;51878.03;5079401;28;20213;-85
2023/06/28 09:41:45;;;;;;;5.43;1.60;;;;;;;-145.69;nan;51848.34;5079416;28;20263;-85
2023/06/28 09:44:13;;;;;;;7.97;1.70;;;;;;;-145.69;nan;51860.22;5079231;28;20202;-85
2023/06/28 09:46:44;;;;;;;3.10;1.33;;;;;;;-145.69;nan;51878.03;5079346;28;20214;-84
2023/06/28 09:49:20;;;;;;;4.65;1.20;;;;;;;-145.69;nan;51868.13;5078859;28;20271;-83
2023/06/28 09:51:54;;;;;;;4.72;1.77;;;;;;;-145.69;nan;51838.44;5079234;28;20209;-85
2023/06/28 09:54:21;;;;;;;4.80;1.60;;;;;;;-145.69;nan;51866.16;5078953;28;20205;-84
2023/06/28 09:56:54;;;;;;;6.25;1.40;;;;;;;-145.69;nan;51864.16;5078712;28;20654;-83
2023/06/28 09:59:24;;;;;;;8.82;1.85;;;;;;;-145.69;nan;51870.13;5078987;28;20194;-86
2023/06/28 10:01:52;;;;;;;7.57;1.70;;;;;;;-145.69;nan;51862.19;5079107;28;20198;-84
2023/06/28 10:04:20;;;;;;;5.78;1.75;;;;;;;-145.69;nan;51864.16;5077604;28;20438;-84
2023/06/28 10:06:48;;;;;;;4.47;1.50;;;;;;;-145.69;nan;51834.47;5079230;28;20202;-84
2023/06/28 10:09:16;;;;;;;7.95;1.63;;;;;;;-145.69;nan;51808.72;5078920;28;20218;-83
2023/06/28 10:11:48;;;;;;;6.45;1.58;;;;;;;-145.69;nan;51826.56;5079372;28;20206;-85
2023/06/28 10:14:18;;;;;;;2.72;1.20;;;;;;;-145.69;nan;51856.25;5079287;28;20199;-87
2023/06/28 10:16:47;;;;;;;4.40;1.40;;;;;;;-145.69;nan;51822.59;5078762;28;20199;-85
2023/06/28 10:19:14;;;;;;;5.72;1.52;;;;;;;-145.69;nan;51818.63;5079222;28;20277;-87
2023/06/28 10:21:42;;;;;;;2.42;1.25;;;;;;;-145.69;nan;51850.31;5079543;28;20545;-85
2023/06/28 10:24:09;;;;;;;5.43;1.60;;;;;;;-145.69;nan;51850.31;5078745;28;20198;-83
2023/06/28 10:26:41;;;;;;;3.95;1.70;;;;;;;-145.69;nan;51862.19;5078739;28;20210;-84
2023/06/28 10:29:08;;;;;;;5.45;1.70;;;;;;;-145.69;nan;51889.91;5078437;28;20214;-82
2023/06/28 10:31:41;;;;;;;4.60;1.42;;;;;;;-145.69;nan;51864.16;5075598;28;20263;-85
2023/06/28 10:34:10;;;;;;;5.72;1.50;;;;;;;-145.69;nan;51838.44;5075440;28;20657;-87
2023/06/28 10:36:38;;;;;;;5.47;1.40;;;;;;;-145.69;nan;51866.16;5088596;28;20199;-84
2023/06/28 10:39:08;;;;;;;4.28;1.60;;;;;;;-145.69;nan;51814.66;5071069;28;20661;-85
2023/06/28 10:41:35;;;;;;;8.18;1.58;;;;;;;-145.69;nan;51838.44;5076071;28;20716;-85
2023/06/28 10:44:05;;;;;;;4.60;1.58;;;;;;;-145.69;nan;51830.50;5075679;28;20207;-85
2023/06/28 10:46:32;;;;;;;5.88;1.48;;;;;;;-145.69;nan;51850.31;5075097;28;20206;-82
2023/06/28 10:49:00;;;;;;;5.88;1.50;;;;;;;-145.69;nan;51842.38;5074538;28;20229;-84
2023/06/28 10:51:33;;;;;;;4.00;1.38;;;;;;;-145.69;nan;51808.72;5075738;28;20230;-85
2023/06/28 10:54:12;;;;;;;5.45;1.30;;;;;;;-145.69;nan;51830.50;5075815;28;20199;-86
2023/06/28 10:56:45;;;;;;;6.07;1.55;;;;;;;-145.69;nan;51796.84;5076010;28;20206;-85
2023/06/28 10:59:14;;;;;;;5.25;1.40;;;;;;;-145.69;nan;51826.56;5075431;28;20192;-81
2023/06/28 11:01:54;;;;;;;6.65;1.40;;;;;;;-145.69;nan;51820.59;5075653;28;20198;-88
2023/06/28 11:04:24;;;;;;;4.95;1.33;;;;;;;-145.69;nan;51826.56;5075101;28;20284;-85
2023/06/28 11:07:11;;;;;;;5.15;1.52;;;;;;;-145.69;nan;51842.38;5076067;28;20211;-86
2023/06/28 11:09:37;;;;;;;9.55;1.80;;;;;;;-145.69;nan;51862.19;5075058;28;20577;-84
2023/06/28 11:12:07;;;;;;;7.10;1.40;;;;;;;-145.69;nan;51846.34;5075535;28;20203;-87
2023/06/28 11:14:34;;;;;;;4.65;1.30;;;;;;;-145.69;nan;51810.72;5074905;28;20758;-84
2023/06/28 11:17:02;;;;;;;4.65;1.80;;;;;;;-145.69;nan;51822.59;5075014;28;20210;-86
2023/06/28 11:19:29;;;;;;;4.68;1.65;;;;;;;-145.69;nan;51806.75;5075085;28;20211;-86
2023/06/28 11:21:57;;;;;;;5.88;1.35;;;;;;;-145.69;nan;51810.72;5075267;28;20202;-89
2023/06/28 11:24:43;;;;;;;6.45;1.45;;;;;;;-145.69;nan;51826.56;5075843;28;20211;-86
2023/06/28 11:27:13;;;;;;;7.47;1.75;;;;;;;-145.69;nan;51794.88;5074867;28;20202;-86
2023/06/28 11:30:00;;;;;;;5.82;1.70;;;;;;;-145.69;nan;51854.28;5074485;28;20229;-86
2023/06/28 11:32:32;;;;;;;3.42;1.52;;;;;;;-145.69;nan;51783.00;5074876;28;20213;-87
2023/06/28 11:35:00;;;;;;;13.18;2.67;;;;;;;-145.69;nan;51814.66;5074949;28;20207;-84
2023/06/28 11:37:30;;;;;;;5.78;1.23;;;;;;;-145.69;nan;51814.66;5075136;28;20205;-87